Lifter — V2DD4 — position and weather

sailwx.info

Track history (hours):
 
Tides and Currents Weather Stations Pressure Air Temp Water Temp Dewpoint Dewpoint Depression Visibility Wind Speed Wind Dir Waves Ship Positions

Lifter

Last reported at 2015-Feb-26 10:20 UTC. Time now 2015-Feb-27 15:20 UTC.
Position N 37°00' E 013°28'.

Length 118 m; draft 5.9 m.

Type: Ship. MMSI: 305175000.

Date/timePositionNaut miles runAvg speedWind from/ knotsBaromVisibWave heightAir tempDewpointWater temp
2015-Feb-26 10:20N 37°00' E 013°28'1012.7
2015-Feb-26 09:33N 36°56' E 013°39'1212.2
2015-Feb-26 08:33N 36°52' E 013°53'1211.6
2015-Feb-26 07:33N 36°48' E 014°07'  
2015-Feb-23 22:09N 37°21' E 023°39'813.6
2015-Feb-23 21:32N 37°29' E 023°40'1313.7
2015-Feb-23 20:33N 37°43' E 023°40'1312.8
2015-Feb-23 19:33N 37°54' E 023°33'0 0.2
2015-Feb-23 18:33N 37°54' E 023°33'0 0.1
2015-Feb-23 17:33N 37°54' E 023°33'0 0.0
2015-Feb-23 16:33N 37°54' E 023°33'0 0.0
2015-Feb-23 15:33N 37°54' E 023°33'0 0.0
2015-Feb-23 14:33N 37°54' E 023°33'0 0.1
2015-Feb-23 13:33N 37°54' E 023°33'1010.2
2015-Feb-23 12:33N 37°46' E 023°42'1312.9
2015-Feb-23 11:33N 37°38' E 023°54'3812.2
2015-Feb-23 08:28N 37°57' E 024°36'  
2015-Feb-19 18:27N 37°33' E 025°54'4 4.0
2015-Feb-19 17:32N 37°30' E 025°55'4 3.8
2015-Feb-19 16:32N 37°26' E 025°56'345 8.2
2015-Feb-17 22:16N 35°55' E 032°51'  
Track history (hours):
 
Tides and Currents Weather Stations Pressure Air Temp Water Temp Dewpoint Dewpoint Depression Visibility Wind Speed Wind Dir Waves Ship Positions

Lifter

Last reported at 2015-Feb-26 10:20 UTC. Time now 2015-Feb-27 15:20 UTC.
Position N 37°00' E 013°28'.

Length 118 m; draft 5.9 m.

Type: Ship. MMSI: 305175000.

Date/timePositionNaut miles runAvg speedWind from/ knotsBaromVisibWave heightAir tempDewpointWater temp
2015-Feb-26 10:20N 37°00' E 013°28'1012.7
2015-Feb-26 09:33N 36°56' E 013°39'1212.2
2015-Feb-26 08:33N 36°52' E 013°53'1211.6
2015-Feb-26 07:33N 36°48' E 014°07'  
2015-Feb-23 22:09N 37°21' E 023°39'813.6
2015-Feb-23 21:32N 37°29' E 023°40'1313.7
2015-Feb-23 20:33N 37°43' E 023°40'1312.8
2015-Feb-23 19:33N 37°54' E 023°33'0 0.2
2015-Feb-23 18:33N 37°54' E 023°33'0 0.1
2015-Feb-23 17:33N 37°54' E 023°33'0 0.0
2015-Feb-23 16:33N 37°54' E 023°33'0 0.0
2015-Feb-23 15:33N 37°54' E 023°33'0 0.0
2015-Feb-23 14:33N 37°54' E 023°33'0 0.1
2015-Feb-23 13:33N 37°54' E 023°33'1010.2
2015-Feb-23 12:33N 37°46' E 023°42'1312.9
2015-Feb-23 11:33N 37°38' E 023°54'3812.2
2015-Feb-23 08:28N 37°57' E 024°36'  
2015-Feb-19 18:27N 37°33' E 025°54'4 4.0
2015-Feb-19 17:32N 37°30' E 025°55'4 3.8
2015-Feb-19 16:32N 37°26' E 025°56'345 8.2
2015-Feb-17 22:16N 35°55' E 032°51'  

Dump ship's entire track history